Time;durP1;ratioP1;P1;durP2;ratioP2;P2;SDS_P1;SDS_P2;PMS_P1;PMS_P2;Temp;Humidity;BMP_temperature;BMP_pressure;BME280_temperature;BME280_humidity;BME280_pressure;Samples;Min_cycle;Max_cycle;Signal;HPM_P1;HPM_P2
2022/01/30 00:01:53;;;;;;;36.40;4.85;;;5.90;72.70;;;;;;5070132;28;20060;-77
2022/01/30 00:04:19;;;;;;;26.20;3.83;;;5.80;72.80;;;;;;5065910;28;20033;-76
2022/01/30 00:06:46;;;;;;;30.48;4.15;;;5.80;72.50;;;;;;5068140;28;20055;-76
2022/01/30 00:09:22;;;;;;;31.02;4.03;;;5.80;72.60;;;;;;5067116;28;20119;-75
2022/01/30 00:11:59;;;;;;;29.05;4.07;;;5.80;72.20;;;;;;5063852;28;20049;-75
2022/01/30 00:14:29;;;;;;;31.40;4.20;;;5.80;72.40;;;;;;5067025;28;20066;-78
2022/01/30 00:17:02;;;;;;;41.75;5.07;;;5.80;72.70;;;;;;5069177;28;20060;-78
2022/01/30 00:19:36;;;;;;;33.88;4.53;;;5.70;72.60;;;;;;5067276;28;20048;-76
2022/01/30 00:22:18;;;;;;;28.67;4.28;;;5.70;72.70;;;;;;5070431;28;20041;-77
2022/01/30 00:24:53;;;;;;;32.60;4.38;;;5.70;72.50;;;;;;5070231;28;21243;-76
2022/01/30 00:27:28;;;;;;;32.47;5.22;;;5.70;72.20;;;;;;5068466;28;20039;-77
2022/01/30 00:29:55;;;;;;;37.13;4.50;;;5.60;72.50;;;;;;5070207;28;20072;-78
2022/01/30 00:32:22;;;;;;;29.70;4.03;;;5.70;72.10;;;;;;5068085;28;20089;-78
2022/01/30 00:35:09;;;;;;;30.67;3.67;;;5.70;71.80;;;;;;5067022;28;20101;-78
2022/01/30 00:37:40;;;;;;;24.13;3.95;;;5.60;71.80;;;;;;5070325;28;20094;-78
2022/01/30 00:40:27;;;;;;;27.15;4.05;;;5.70;71.20;;;;;;5068849;28;20148;-78
2022/01/30 00:42:54;;;;;;;26.67;4.13;;;5.70;71.40;;;;;;5065715;28;20041;-78
2022/01/30 00:45:22;;;;;;;29.63;4.55;;;5.60;71.80;;;;;;5059935;28;20061;-75
2022/01/30 00:47:51;;;;;;;39.78;5.07;;;5.60;71.60;;;;;;5069719;28;20064;-76
2022/01/30 00:50:20;;;;;;;34.83;4.32;;;5.50;71.50;;;;;;5065695;28;20034;-78
2022/01/30 00:52:53;;;;;;;25.63;4.63;;;5.60;70.90;;;;;;5062914;28;20045;-80
2022/01/30 00:55:27;;;;;;;19.73;3.58;;;5.70;70.50;;;;;;5066719;28;20057;-78
2022/01/30 00:57:54;;;;;;;25.20;5.05;;;5.70;70.80;;;;;;5068503;28;20072;-79
2022/01/30 01:00:22;;;;;;;30.52;4.28;;;5.60;71.10;;;;;;5064532;28;20038;-77
2022/01/30 01:02:49;;;;;;;33.80;4.75;;;5.70;70.60;;;;;;5068321;28;20073;-76
2022/01/30 01:05:24;;;;;;;34.10;4.55;;;5.70;70.60;;;;;;5067214;28;20101;-77
2022/01/30 01:07:55;;;;;;;26.10;3.58;;;5.70;70.60;;;;;;5070617;28;20049;-78
2022/01/30 01:10:40;;;;;;;31.20;4.63;;;5.60;70.90;;;;;;5073297;28;20038;-78
2022/01/30 01:23:47;;;;;;;21.88;3.80;;;5.40;72.20;;;;;;5070557;28;20085;-76
2022/01/30 01:26:17;;;;;;;26.30;4.07;;;5.40;72.20;;;;;;5075044;28;20040;-79
2022/01/30 01:28:44;;;;;;;31.15;4.53;;;5.50;72.20;;;;;;5066038;28;20133;-79
2022/01/30 01:31:11;;;;;;;32.38;4.22;;;5.40;72.60;;;;;;5069745;28;20053;-77
2022/01/30 01:36:08;;;;;;;29.45;5.15;;;5.40;72.30;;;;;;5067631;28;20057;-78
2022/01/30 01:38:35;;;;;;;32.08;4.65;;;5.40;72.70;;;;;;5070272;28;20164;-78
2022/01/30 01:41:02;;;;;;;23.40;4.45;;;5.40;72.50;;;;;;5069683;28;20131;-79
2022/01/30 01:43:30;;;;;;;32.05;3.88;;;5.40;72.40;;;;;;5072287;28;20037;-76
2022/01/30 01:45:58;;;;;;;26.15;3.75;;;5.30;72.30;;;;;;5072272;28;20068;-79
2022/01/30 01:48:25;;;;;;;33.20;3.95;;;5.30;72.40;;;;;;5071984;28;20068;-78
2022/01/30 01:51:06;;;;;;;31.27;3.70;;;5.30;72.20;;;;;;5068420;28;20049;-78
2022/01/30 01:53:35;;;;;;;25.65;3.67;;;5.30;72.20;;;;;;5071336;28;20049;-79
2022/01/30 01:56:01;;;;;;;21.17;3.83;;;5.30;72.20;;;;;;5072298;28;20114;-78
2022/01/30 01:58:29;;;;;;;21.15;3.90;;;5.30;72.40;;;;;;5069652;28;20066;-79
2022/01/30 02:00:56;;;;;;;22.15;3.67;;;5.30;72.70;;;;;;5073812;28;20113;-77
2022/01/30 02:03:23;;;;;;;22.10;3.63;;;5.30;72.90;;;;;;5064962;28;20038;-78
2022/01/30 02:05:55;;;;;;;24.83;4.40;;;5.20;73.10;;;;;;5066977;28;20037;-79
2022/01/30 02:08:36;;;;;;;29.70;4.30;;;5.20;73.30;;;;;;5072423;28;20049;-79
2022/01/30 02:11:09;;;;;;;39.42;4.45;;;5.20;73.50;;;;;;5070556;28;20030;-77
2022/01/30 02:14:13;;;;;;;29.83;4.18;;;5.30;73.60;;;;;;5068457;28;20034;-76
2022/01/30 02:25:17;;;;;;;24.52;3.63;;;5.30;73.90;;;;;;5059999;28;20048;-79
2022/01/30 02:27:44;;;;;;;23.23;3.45;;;5.30;73.50;;;;;;5082489;28;20034;-80
2022/01/30 02:30:15;;;;;;;30.92;4.63;;;5.30;73.60;;;;;;5070750;28;20045;-77
2022/01/30 02:32:42;;;;;;;23.90;3.63;;;5.20;73.80;;;;;;5073242;28;20154;-79
2022/01/30 02:35:15;;;;;;;17.63;2.55;;;5.20;73.70;;;;;;5071338;28;20065;-79
2022/01/30 02:37:42;;;;;;;27.73;4.25;;;5.20;73.40;;;;;;5071268;28;20067;-78
2022/01/30 02:40:12;;;;;;;23.50;3.40;;;5.20;72.80;;;;;;5068621;28;20057;-78
2022/01/30 02:42:45;;;;;;;29.70;3.33;;;5.30;71.60;;;;;;5071159;28;20049;-78
2022/01/30 02:45:14;;;;;;;23.98;3.03;;;5.30;71.30;;;;;;5070898;28;20054;-78
2022/01/30 02:47:56;;;;;;;19.42;3.13;;;5.30;71.00;;;;;;5072628;28;20913;-78
2022/01/30 02:50:36;;;;;;;20.20;2.80;;;5.30;70.50;;;;;;5071576;28;20059;-79
2022/01/30 02:53:07;;;;;;;15.30;2.45;;;5.30;71.10;;;;;;5071117;28;20054;-79
2022/01/30 02:55:34;;;;;;;28.98;3.10;;;5.30;70.90;;;;;;5067588;28;20105;-77
2022/01/30 02:58:01;;;;;;;18.95;2.42;;;5.30;70.40;;;;;;5071037;28;20109;-77
2022/01/30 03:00:28;;;;;;;13.98;2.47;;;5.40;70.70;;;;;;5063789;28;20087;-78
2022/01/30 03:02:55;;;;;;;15.35;2.88;;;5.30;71.00;;;;;;5068005;28;20056;-78
2022/01/30 03:05:22;;;;;;;19.63;2.85;;;5.30;70.60;;;;;;5063025;28;20044;-77
2022/01/30 03:07:49;;;;;;;12.73;2.17;;;5.30;70.80;;;;;;5066971;28;20060;-78
2022/01/30 03:10:16;;;;;;;22.00;3.22;;;5.30;71.10;;;;;;5058221;28;20803;-76
2022/01/30 03:12:42;;;;;;;19.27;2.90;;;5.20;71.10;;;;;;5066874;28;20096;-77
2022/01/30 03:15:11;;;;;;;24.80;3.92;;;5.20;71.60;;;;;;5066894;28;20100;-78
2022/01/30 03:17:40;;;;;;;26.70;3.08;;;5.10;71.60;;;;;;5067024;28;20065;-77
2022/01/30 03:20:08;;;;;;;18.23;2.55;;;5.10;71.90;;;;;;5068077;28;20053;-79
2022/01/30 03:22:35;;;;;;;21.15;3.17;;;5.00;72.30;;;;;;5065864;28;20080;-76
2022/01/30 03:25:03;;;;;;;18.02;2.92;;;4.90;72.50;;;;;;5067457;28;20038;-77
2022/01/30 03:27:30;;;;;;;18.88;2.88;;;4.90;72.60;;;;;;5059056;28;20041;-79
2022/01/30 03:30:04;;;;;;;20.85;3.30;;;4.90;72.80;;;;;;5058697;28;20046;-77
2022/01/30 03:32:31;;;;;;;20.98;2.50;;;4.80;73.10;;;;;;5063731;28;20026;-77
2022/01/30 03:34:58;;;;;;;21.00;2.67;;;4.80;73.20;;;;;;5063811;28;20054;-79
2022/01/30 03:37:25;;;;;;;23.85;2.88;;;4.90;73.10;;;;;;5063089;28;20108;-78
2022/01/30 03:39:52;;;;;;;17.25;3.15;;;4.80;73.10;;;;;;5061941;28;20046;-78
2022/01/30 03:42:19;;;;;;;22.48;2.40;;;4.80;72.90;;;;;;5067826;28;20098;-77
2022/01/30 03:44:46;;;;;;;15.32;2.90;;;4.80;72.70;;;;;;5065180;28;20054;-78
2022/01/30 03:47:12;;;;;;;20.48;2.72;;;4.90;72.10;;;;;;5064578;28;20088;-78
2022/01/30 03:49:39;;;;;;;18.75;2.72;;;4.90;72.20;;;;;;5064761;28;20033;-77
2022/01/30 03:52:07;;;;;;;18.02;2.67;;;4.80;72.20;;;;;;5066224;28;20049;-77
2022/01/30 03:54:35;;;;;;;21.27;2.88;;;4.90;71.80;;;;;;5079161;28;20089;-77
2022/01/30 03:57:03;;;;;;;17.23;2.78;;;4.90;71.50;;;;;;5067200;28;20037;-76
2022/01/30 03:59:30;;;;;;;20.38;2.67;;;4.90;71.50;;;;;;5065802;28;20065;-76
2022/01/30 04:01:57;;;;;;;15.30;2.10;;;4.90;70.60;;;;;;5068007;28;20028;-78
2022/01/30 04:04:24;;;;;;;20.23;2.75;;;4.90;71.30;;;;;;5065824;28;20045;-78
2022/01/30 04:06:55;;;;;;;19.25;3.30;;;4.90;70.90;;;;;;5063682;28;20109;-76
2022/01/30 04:09:22;;;;;;;22.45;2.40;;;4.80;71.20;;;;;;5058361;28;20058;-78
2022/01/30 04:11:49;;;;;;;17.40;3.35;;;4.80;70.90;;;;;;5065698;28;20042;-77
2022/01/30 04:14:16;;;;;;;17.38;2.40;;;4.80;71.00;;;;;;5067584;28;20069;-76
2022/01/30 04:16:42;;;;;;;19.25;2.92;;;4.80;71.00;;;;;;5065928;28;20073;-79
2022/01/30 04:19:09;;;;;;;17.83;2.88;;;4.80;71.20;;;;;;5066517;28;20113;-77
2022/01/30 04:21:36;;;;;;;18.95;3.22;;;4.80;71.40;;;;;;5067718;28;20332;-75
2022/01/30 04:24:04;;;;;;;15.65;2.55;;;4.80;71.60;;;;;;5067911;28;20021;-77
2022/01/30 04:26:31;;;;;;;14.75;2.40;;;4.80;71.90;;;;;;5064069;28;20045;-76
2022/01/30 04:28:58;;;;;;;14.70;2.70;;;4.80;71.80;;;;;;5069749;28;20070;-77
2022/01/30 04:31:25;;;;;;;17.73;2.63;;;4.80;72.10;;;;;;5068057;28;20044;-75
2022/01/30 04:33:52;;;;;;;19.77;3.50;;;4.70;72.80;;;;;;5067306;28;20050;-75
2022/01/30 04:36:25;;;;;;;24.60;3.30;;;4.70;72.30;;;;;;5063471;28;20081;-75
2022/01/30 05:00:19;;;;;;;19.35;2.58;;;5.20;71.70;;;;;;5068267;28;20073;-76
2022/01/30 05:05:45;;;;;;;20.80;3.63;;;5.10;72.00;;;;;;5067593;28;20042;-77
2022/01/30 05:08:15;;;;;;;21.48;3.00;;;5.00;72.20;;;;;;5064789;28;20049;-77
2022/01/30 05:10:41;;;;;;;25.77;3.70;;;4.90;72.60;;;;;;5063885;28;20053;-75
2022/01/30 05:13:13;;;;;;;23.45;3.17;;;4.80;72.80;;;;;;5066656;28;20065;-77
2022/01/30 05:15:42;;;;;;;26.13;3.00;;;4.80;72.90;;;;;;5064767;28;20026;-75
2022/01/30 05:18:10;;;;;;;17.23;2.40;;;4.80;72.70;;;;;;5060565;28;20058;-75
2022/01/30 05:20:37;;;;;;;21.60;2.50;;;4.70;72.60;;;;;;5062001;28;20101;-76
2022/01/30 05:23:04;;;;;;;22.42;3.25;;;4.70;73.00;;;;;;5062940;28;20057;-74
2022/01/30 05:25:31;;;;;;;25.13;3.03;;;4.70;73.00;;;;;;5066835;28;20127;-78
2022/01/30 05:27:59;;;;;;;20.83;3.10;;;4.70;73.00;;;;;;5066607;28;20048;-77
2022/01/30 05:30:25;;;;;;;17.92;2.97;;;4.70;73.10;;;;;;5060771;28;20056;-75
2022/01/30 05:32:52;;;;;;;19.65;3.20;;;4.70;73.00;;;;;;5062968;28;20097;-75
2022/01/30 05:35:19;;;;;;;27.52;3.45;;;4.70;73.20;;;;;;5061927;28;20128;-77
2022/01/30 05:37:47;;;;;;;29.98;3.80;;;4.70;73.60;;;;;;5058425;28;20057;-76
2022/01/30 05:40:14;;;;;;;20.15;2.75;;;4.60;73.60;;;;;;5068889;28;20065;-77
2022/01/30 05:42:42;;;;;;;21.35;3.28;;;4.60;73.50;;;;;;5065269;28;20046;-76
2022/01/30 05:45:16;;;;;;;27.23;3.85;;;4.70;73.50;;;;;;5070967;28;20089;-77
2022/01/30 05:47:51;;;;;;;19.77;2.92;;;4.70;73.60;;;;;;5065850;28;20049;-76
2022/01/30 05:50:18;;;;;;;23.15;3.45;;;4.60;73.90;;;;;;5070746;28;20041;-77
2022/01/30 05:52:44;;;;;;;27.08;4.15;;;4.60;73.90;;;;;;5072233;28;20089;-77
2022/01/30 05:55:11;;;;;;;23.25;3.45;;;4.50;74.20;;;;;;5073939;28;20017;-79
2022/01/30 05:57:38;;;;;;;23.30;3.08;;;4.60;74.20;;;;;;5068621;28;20038;-77
2022/01/30 06:00:13;;;;;;;27.70;3.10;;;4.60;74.10;;;;;;5068988;28;20057;-78
2022/01/30 06:02:42;;;;;;;23.00;3.75;;;4.50;74.10;;;;;;5071840;28;20992;-77
2022/01/30 06:05:09;;;;;;;25.85;3.78;;;4.50;74.30;;;;;;5068370;28;20606;-75
2022/01/30 06:07:47;;;;;;;22.88;4.07;;;4.40;74.60;;;;;;5069885;28;20061;-77
2022/01/30 06:10:14;;;;;;;22.83;3.78;;;4.30;75.10;;;;;;5066763;28;20064;-78
2022/01/30 06:12:41;;;;;;;31.25;4.50;;;4.30;75.20;;;;;;5067559;28;20042;-78
2022/01/30 06:15:09;;;;;;;28.70;4.53;;;4.30;75.00;;;;;;5069713;28;20100;-76
2022/01/30 06:17:36;;;;;;;21.58;2.88;;;4.20;75.50;;;;;;5069861;28;20055;-77
2022/01/30 06:20:05;;;;;;;26.00;3.50;;;4.20;75.60;;;;;;5070653;28;20081;-75
2022/01/30 06:22:34;;;;;;;32.45;3.90;;;4.20;75.50;;;;;;5069874;28;20128;-77
2022/01/30 06:25:01;;;;;;;25.75;3.17;;;4.20;75.50;;;;;;5073727;28;20090;-76
2022/01/30 06:27:28;;;;;;;21.42;3.20;;;4.20;75.60;;;;;;5073238;28;20041;-78
2022/01/30 06:29:55;;;;;;;18.23;3.88;;;4.20;75.50;;;;;;5061557;28;20078;-78
2022/01/30 06:32:22;;;;;;;25.02;3.65;;;4.10;75.80;;;;;;5069869;28;20050;-78
2022/01/30 06:34:49;;;;;;;28.50;4.18;;;4.10;76.00;;;;;;5068435;28;20961;-77
2022/01/30 06:37:16;;;;;;;32.58;3.90;;;4.10;75.90;;;;;;5071229;28;20045;-77
2022/01/30 06:39:42;;;;;;;33.75;4.20;;;4.00;75.70;;;;;;5069226;28;20172;-78
2022/01/30 06:42:09;;;;;;;22.65;3.72;;;4.00;76.00;;;;;;5068226;28;20899;-77
2022/01/30 06:44:37;;;;;;;22.02;3.63;;;3.90;76.00;;;;;;5060594;28;20034;-77
2022/01/30 06:47:05;;;;;;;30.23;3.70;;;3.80;76.10;;;;;;5071843;28;20076;-75
2022/01/30 06:49:32;;;;;;;23.15;3.75;;;3.70;76.10;;;;;;5086359;28;20044;-78
2022/01/30 06:52:01;;;;;;;22.98;3.88;;;3.70;76.50;;;;;;5067627;28;20101;-78
2022/01/30 06:54:28;;;;;;;29.38;4.07;;;3.70;77.00;;;;;;5069204;28;20071;-76
2022/01/30 06:56:54;;;;;;;29.95;3.35;;;3.60;76.90;;;;;;5089925;28;20041;-77
2022/01/30 06:59:21;;;;;;;24.98;3.65;;;3.60;76.80;;;;;;5074339;28;20030;-77
2022/01/30 07:01:49;;;;;;;22.33;3.40;;;3.50;77.10;;;;;;5060058;28;20132;-76
2022/01/30 07:04:16;;;;;;;28.52;3.63;;;3.50;76.70;;;;;;5060371;28;20050;-77
2022/01/30 07:06:42;;;;;;;27.80;3.65;;;3.50;77.20;;;;;;5070053;28;20160;-77
2022/01/30 07:09:09;;;;;;;28.75;3.47;;;3.40;77.10;;;;;;5070928;28;20100;-77
2022/01/30 07:11:36;;;;;;;25.20;3.83;;;3.40;77.70;;;;;;5075389;28;20046;-78
2022/01/30 07:14:05;;;;;;;28.13;3.88;;;3.30;77.70;;;;;;5067851;28;20038;-76
2022/01/30 07:16:31;;;;;;;28.58;3.72;;;3.30;77.60;;;;;;5067613;28;20052;-78
2022/01/30 07:18:59;;;;;;;29.52;3.55;;;3.20;77.60;;;;;;5072115;28;20045;-76
2022/01/30 07:21:25;;;;;;;31.15;4.13;;;3.20;77.60;;;;;;5066527;28;20060;-76
2022/01/30 07:23:52;;;;;;;28.52;3.47;;;3.10;77.90;;;;;;5065724;28;20029;-76
2022/01/30 07:26:19;;;;;;;23.00;3.50;;;3.00;77.90;;;;;;5065300;28;20058;-77
2022/01/30 07:28:45;;;;;;;28.70;4.00;;;3.00;77.90;;;;;;5069299;28;20107;-77
2022/01/30 07:31:12;;;;;;;23.17;3.10;;;2.90;78.20;;;;;;5071764;28;20547;-76
2022/01/30 07:33:40;;;;;;;29.27;3.85;;;2.80;78.30;;;;;;5069321;28;20071;-77
2022/01/30 07:36:08;;;;;;;21.35;3.75;;;2.80;78.30;;;;;;5070780;28;20045;-78
2022/01/30 07:38:36;;;;;;;28.48;3.13;;;2.70;79.10;;;;;;5067515;28;20095;-76
2022/01/30 07:41:06;;;;;;;30.65;3.80;;;2.60;79.30;;;;;;5071150;28;20045;-77
2022/01/30 07:43:33;;;;;;;37.03;4.68;;;2.60;79.30;;;;;;5068545;28;20103;-74
2022/01/30 07:46:03;;;;;;;25.63;4.03;;;2.70;79.30;;;;;;5067429;28;20077;-78
2022/01/30 07:48:30;;;;;;;30.90;3.80;;;2.70;79.80;;;;;;5064955;28;20076;-77
2022/01/30 07:51:02;;;;;;;23.45;2.92;;;2.80;79.30;;;;;;5072312;28;20045;-76
2022/01/30 07:53:29;;;;;;;28.30;3.88;;;2.80;79.50;;;;;;5072411;28;20033;-76
2022/01/30 07:55:56;;;;;;;33.22;4.30;;;2.90;79.50;;;;;;5068959;28;20093;-78
2022/01/30 07:58:23;;;;;;;30.02;3.60;;;3.00;80.30;;;;;;5066833;28;20032;-78
2022/01/30 08:00:50;;;;;;;36.17;4.35;;;3.00;79.80;;;;;;5068124;28;20046;-79
2022/01/30 08:03:17;;;;;;;26.73;3.55;;;3.10;79.90;;;;;;5068132;28;20045;-80
2022/01/30 08:05:44;;;;;;;38.17;4.03;;;3.20;79.80;;;;;;5065648;28;20049;-79
2022/01/30 08:08:12;;;;;;;31.63;3.58;;;3.20;79.90;;;;;;5067230;28;20075;-79
2022/01/30 08:10:39;;;;;;;29.48;4.68;;;3.30;79.80;;;;;;5060511;28;20042;-79
2022/01/30 08:13:06;;;;;;;42.65;5.22;;;3.30;79.30;;;;;;5062304;28;20883;-78
2022/01/30 08:15:37;;;;;;;34.30;4.95;;;3.40;79.30;;;;;;5065639;28;20053;-79
2022/01/30 08:18:04;;;;;;;35.60;4.22;;;3.40;79.40;;;;;;5068775;28;20050;-78
2022/01/30 08:20:31;;;;;;;31.83;4.97;;;3.50;78.90;;;;;;5066593;28;20061;-76
2022/01/30 08:23:00;;;;;;;33.38;4.75;;;3.60;78.70;;;;;;5061453;28;20034;-76
2022/01/30 08:25:27;;;;;;;32.63;4.00;;;3.70;78.40;;;;;;5065549;28;20057;-79
2022/01/30 08:27:57;;;;;;;31.45;4.28;;;3.80;78.30;;;;;;5057476;28;20107;-78
2022/01/30 08:30:27;;;;;;;31.60;4.38;;;3.90;77.90;;;;;;5062507;28;20042;-77
2022/01/30 08:32:58;;;;;;;33.25;5.03;;;4.00;77.90;;;;;;5064686;28;20046;-78
2022/01/30 08:35:25;;;;;;;31.02;3.70;;;4.00;77.70;;;;;;5075589;28;20050;-75
2022/01/30 08:37:52;;;;;;;33.50;3.97;;;4.10;77.60;;;;;;5064201;28;20045;-79
2022/01/30 08:40:21;;;;;;;26.05;4.22;;;4.20;77.60;;;;;;5065636;28;20030;-79
2022/01/30 08:42:49;;;;;;;33.53;4.45;;;4.30;77.70;;;;;;5058729;28;20050;-76
2022/01/30 08:45:19;;;;;;;34.00;5.07;;;4.40;77.50;;;;;;5080057;28;20046;-75
2022/01/30 08:47:51;;;;;;;33.42;5.15;;;4.60;77.80;;;;;;5054424;28;20262;-78
2022/01/30 08:50:21;;;;;;;37.00;4.30;;;4.70;77.30;;;;;;5061606;28;20056;-77
2022/01/30 08:52:52;;;;;;;30.80;4.55;;;4.80;76.70;;;;;;5073328;28;20065;-78
2022/01/30 08:55:19;;;;;;;30.02;3.80;;;4.90;76.60;;;;;;5060733;28;20057;-78
2022/01/30 08:57:47;;;;;;;33.05;4.80;;;5.20;75.90;;;;;;5081361;28;20140;-76
2022/01/30 09:00:17;;;;;;;28.38;4.22;;;5.40;75.50;;;;;;5058974;28;20034;-77
2022/01/30 09:02:44;;;;;;;28.05;3.83;;;5.40;74.60;;;;;;5053289;28;20141;-78
2022/01/30 09:05:12;;;;;;;26.65;4.07;;;5.30;74.30;;;;;;5063163;28;20918;-77
2022/01/30 09:07:39;;;;;;;31.95;3.97;;;5.20;74.20;;;;;;5057129;28;20106;-76
2022/01/30 09:10:09;;;;;;;25.58;4.28;;;5.20;74.60;;;;;;5059837;28;20050;-76
2022/01/30 09:12:36;;;;;;;30.83;4.28;;;5.50;74.50;;;;;;5062907;28;20058;-77
2022/01/30 09:15:04;;;;;;;31.35;4.63;;;5.90;73.60;;;;;;5064880;28;20077;-76
2022/01/30 09:17:32;;;;;;;32.28;5.05;;;6.30;73.70;;;;;;5065499;28;20061;-77
2022/01/30 09:19:59;;;;;;;27.38;4.50;;;6.90;71.50;;;;;;5065407;28;20943;-77
2022/01/30 09:22:26;;;;;;;33.60;5.03;;;7.20;70.30;;;;;;5061883;28;20069;-76
2022/01/30 09:24:53;;;;;;;28.23;5.20;;;7.30;69.10;;;;;;5069904;28;20105;-76
2022/01/30 09:27:20;;;;;;;35.65;4.55;;;7.30;69.30;;;;;;5064346;28;20049;-76
2022/01/30 09:29:49;;;;;;;28.05;3.80;;;7.20;69.60;;;;;;5069509;28;20045;-76
2022/01/30 09:32:18;;;;;;;39.03;5.28;;;7.50;67.30;;;;;;5066380;28;20050;-79
2022/01/30 09:34:48;;;;;;;36.03;5.07;;;7.50;66.40;;;;;;5061538;28;20065;-78
2022/01/30 09:37:15;;;;;;;31.88;4.88;;;7.30;65.90;;;;;;5056970;28;20049;-75
2022/01/30 09:39:42;;;;;;;27.60;4.05;;;7.20;66.30;;;;;;5053410;28;20105;-75
2022/01/30 09:42:09;;;;;;;30.60;4.53;;;7.20;67.10;;;;;;5070675;28;20144;-75
2022/01/30 09:44:39;;;;;;;31.55;4.22;;;7.20;67.80;;;;;;5064045;28;20751;-76
2022/01/30 09:47:17;;;;;;;29.70;4.65;;;7.30;66.30;;;;;;5060366;28;20054;-77
2022/01/30 09:49:54;;;;;;;30.40;4.65;;;7.40;66.40;;;;;;5059742;28;20045;-75
2022/01/30 09:52:29;;;;;;;31.33;5.32;;;7.30;65.50;;;;;;5063706;28;20056;-78
2022/01/30 09:54:55;;;;;;;34.75;5.38;;;7.30;65.90;;;;;;5063592;28;20091;-78
2022/01/30 09:57:22;;;;;;;32.20;4.47;;;7.40;66.60;;;;;;5056194;28;20073;-76
2022/01/30 09:59:49;;;;;;;36.05;5.07;;;7.40;66.10;;;;;;5079395;28;20109;-75
2022/01/30 10:02:16;;;;;;;40.13;5.68;;;7.30;65.70;;;;;;5072555;28;20045;-76
2022/01/30 10:04:45;;;;;;;29.55;4.40;;;7.40;65.50;;;;;;5053951;28;20050;-76
2022/01/30 10:07:17;;;;;;;31.05;4.63;;;7.50;64.90;;;;;;5058666;28;20056;-76
2022/01/30 10:09:46;;;;;;;33.95;4.50;;;7.60;66.10;;;;;;5073966;28;20148;-77
2022/01/30 10:12:20;;;;;;;29.77;4.38;;;7.90;64.20;;;;;;5063618;28;20061;-76
2022/01/30 10:15:15;;;;;;;40.65;5.05;;;7.80;63.40;;;;;;5057169;28;20101;-80
2022/01/30 10:17:49;;;;;;;28.52;4.80;;;7.70;63.60;;;;;;5061658;28;20533;-79
2022/01/30 10:20:37;;;;;;;42.65;5.50;;;7.60;63.70;;;;;;5063704;28;20033;-79
2022/01/30 10:23:11;;;;;;;27.80;4.03;;;7.80;63.20;;;;;;5057476;28;20054;-78
2022/01/30 10:25:53;;;;;;;32.88;4.72;;;7.80;61.70;;;;;;5063977;28;20045;-78
2022/01/30 10:28:31;;;;;;;35.30;4.93;;;7.60;61.50;;;;;;5062093;28;20052;-76
2022/01/30 10:31:01;;;;;;;34.13;4.80;;;7.60;62.50;;;;;;5068277;28;20133;-75
2022/01/30 10:33:42;;;;;;;35.28;4.75;;;7.70;60.90;;;;;;5066281;28;20053;-74
2022/01/30 10:36:10;;;;;;;36.88;5.22;;;8.00;61.20;;;;;;5058167;28;20054;-79
2022/01/30 10:38:47;;;;;;;33.53;5.20;;;8.40;61.60;;;;;;5057989;28;20496;-75
2022/01/30 10:41:21;;;;;;;28.33;4.18;;;8.60;59.40;;;;;;5063471;28;20054;-75
2022/01/30 10:43:50;;;;;;;33.30;4.38;;;8.60;57.60;;;;;;5067019;28;20045;-76
2022/01/30 10:46:19;;;;;;;27.63;4.40;;;8.80;58.50;;;;;;5062460;28;20058;-77
2022/01/30 10:48:55;;;;;;;34.70;4.47;;;8.90;57.90;;;;;;5061203;28;20049;-76
2022/01/30 10:51:22;;;;;;;39.53;5.38;;;9.00;58.50;;;;;;5056127;28;20065;-77
2022/01/30 10:53:51;;;;;;;37.75;4.95;;;9.20;57.80;;;;;;5062876;28;20066;-78
2022/01/30 10:56:25;;;;;;;30.85;5.30;;;9.50;57.70;;;;;;5068991;28;20111;-78
2022/01/30 10:59:05;;;;;;;36.45;5.78;;;9.60;57.50;;;;;;5066092;28;20045;-79
2022/01/30 11:01:33;;;;;;;31.85;4.63;;;9.50;57.30;;;;;;5054063;28;20049;-76
2022/01/30 11:04:02;;;;;;;28.27;4.97;;;9.10;56.80;;;;;;5064251;28;20049;-77
2022/01/30 11:06:36;;;;;;;36.60;4.78;;;9.00;57.40;;;;;;5066765;28;20084;-79
2022/01/30 11:09:19;;;;;;;28.88;4.63;;;8.80;55.20;;;;;;5054361;28;20104;-78
2022/01/30 11:11:53;;;;;;;36.65;4.55;;;8.50;57.40;;;;;;5056905;28;20057;-78
2022/01/30 11:14:34;;;;;;;28.48;4.68;;;8.30;56.70;;;;;;5058918;28;20034;-79
2022/01/30 11:17:07;;;;;;;29.15;4.53;;;8.10;58.40;;;;;;5063710;28;20057;-78
2022/01/30 11:19:39;;;;;;;37.17;5.40;;;8.10;57.60;;;;;;5056572;28;20056;-78
2022/01/30 11:22:13;;;;;;;34.33;5.30;;;8.10;58.50;;;;;;5054592;28;20110;-78
2022/01/30 11:24:47;;;;;;;29.42;5.28;;;8.10;57.90;;;;;;5063844;28;20113;-79
2022/01/30 11:27:15;;;;;;;30.83;4.72;;;7.90;56.90;;;;;;5059352;28;20052;-77
2022/01/30 11:29:43;;;;;;;29.45;4.53;;;7.80;57.70;;;;;;5061720;28;20109;-79
2022/01/30 11:32:10;;;;;;;37.50;5.88;;;8.00;57.50;;;;;;5062005;28;20954;-76
2022/01/30 11:34:41;;;;;;;41.97;4.75;;;8.30;58.80;;;;;;5063288;28;20076;-76
2022/01/30 11:37:10;;;;;;;35.97;4.97;;;8.70;56.20;;;;;;5076217;28;20053;-77
2022/01/30 11:39:44;;;;;;;39.53;5.70;;;8.70;55.70;;;;;;5062405;28;20776;-76
2022/01/30 11:42:19;;;;;;;35.75;5.70;;;8.90;55.70;;;;;;5060016;28;20752;-77
2022/01/30 11:45:04;;;;;;;28.25;4.63;;;8.80;55.00;;;;;;5057074;28;20042;-77
2022/01/30 11:47:55;;;;;;;36.40;5.20;;;8.40;54.50;;;;;;5062007;28;20049;-76
2022/01/30 11:50:28;;;;;;;27.27;5.03;;;8.30;55.90;;;;;;5060112;28;20073;-76
2022/01/30 11:53:00;;;;;;;28.73;5.53;;;8.20;56.50;;;;;;5060378;28;20897;-80
2022/01/30 11:56:00;;;;;;;23.02;4.45;;;8.20;54.90;;;;;;5061745;28;20049;-76
2022/01/30 11:58:30;;;;;;;25.38;4.80;;;8.30;56.10;;;;;;5062299;28;20077;-80
2022/01/30 12:00:59;;;;;;;30.92;4.80;;;8.30;55.80;;;;;;5064603;28;20057;-80
2022/01/30 12:03:35;;;;;;;34.53;5.70;;;8.20;56.30;;;;;;5065550;28;20080;-76
2022/01/30 12:06:21;;;;;;;39.15;5.60;;;8.10;55.90;;;;;;5060325;28;20115;-76
2022/01/30 12:08:49;;;;;;;26.27;4.38;;;8.10;56.60;;;;;;5054643;28;20037;-77
2022/01/30 12:11:34;;;;;;;36.08;5.30;;;8.10;56.20;;;;;;5058457;28;20097;-78
2022/01/30 12:14:02;;;;;;;30.25;4.70;;;8.20;55.20;;;;;;5062886;28;20049;-78
2022/01/30 12:17:07;;;;;;;32.78;4.32;;;8.20;54.70;;;;;;5056046;28;20038;-79
2022/01/30 12:19:36;;;;;;;35.67;4.57;;;8.20;54.50;;;;;;5038887;28;20053;-77
2022/01/30 12:22:16;;;;;;;40.28;5.47;;;8.30;55.30;;;;;;5033605;28;20050;-78
2022/01/30 12:24:46;;;;;;;26.08;4.43;;;8.30;56.60;;;;;;5025539;28;21033;-77
2022/01/30 12:27:13;;;;;;;32.58;4.72;;;8.30;55.50;;;;;;5026601;28;20137;-78
2022/01/30 12:29:40;;;;;;;27.88;4.18;;;8.20;55.50;;;;;;5029871;28;20081;-77
2022/01/30 12:32:22;;;;;;;34.00;5.00;;;8.20;55.70;;;;;;5037127;28;20137;-80
2022/01/30 12:34:55;;;;;;;33.97;4.72;;;8.30;55.50;;;;;;5042157;28;20101;-79
2022/01/30 12:37:34;;;;;;;27.25;4.05;;;8.50;55.40;;;;;;5038748;28;20038;-77
2022/01/30 12:40:15;;;;;;;32.72;4.95;;;8.70;56.20;;;;;;5039717;28;20089;-78
2022/01/30 12:42:43;;;;;;;34.40;4.95;;;8.90;55.20;;;;;;5044243;28;20069;-79
2022/01/30 12:45:11;;;;;;;29.35;4.97;;;8.90;54.50;;;;;;5044242;28;20241;-79
2022/01/30 12:47:48;;;;;;;31.58;5.60;;;8.80;54.10;;;;;;5046060;28;20101;-81
2022/01/30 12:50:17;;;;;;;35.95;5.22;;;8.70;54.70;;;;;;5050861;28;20085;-80
2022/01/30 12:52:49;;;;;;;26.05;3.80;;;8.70;55.80;;;;;;5062437;28;20045;-78
2022/01/30 12:55:17;;;;;;;30.85;4.78;;;8.70;55.80;;;;;;5065975;28;20045;-79
2022/01/30 12:57:45;;;;;;;36.33;4.65;;;8.60;55.10;;;;;;5056448;28;20045;-79
2022/01/30 13:00:17;;;;;;;25.15;4.38;;;8.70;54.90;;;;;;5056585;28;20050;-78
2022/01/30 13:02:57;;;;;;;27.25;4.53;;;8.80;54.50;;;;;;5051856;28;20160;-77
2022/01/30 13:05:26;;;;;;;36.85;5.65;;;8.80;53.40;;;;;;5062545;28;20053;-78
2022/01/30 13:07:54;;;;;;;35.47;5.18;;;8.70;54.40;;;;;;5049420;28;20458;-76
2022/01/30 13:10:22;;;;;;;28.75;4.22;;;8.70;54.80;;;;;;5053095;28;20054;-78
2022/01/30 13:12:49;;;;;;;26.95;4.30;;;8.60;54.40;;;;;;5057375;28;20088;-76
2022/01/30 13:15:21;;;;;;;32.28;4.35;;;8.40;54.80;;;;;;5058637;28;20049;-76
2022/01/30 13:17:49;;;;;;;32.83;5.05;;;8.40;55.00;;;;;;5062154;28;20038;-78
2022/01/30 13:20:21;;;;;;;26.60;4.20;;;8.40;55.50;;;;;;5059617;28;20133;-76
2022/01/30 13:22:50;;;;;;;33.33;4.53;;;8.40;55.00;;;;;;5051438;28;20038;-76
2022/01/30 13:25:18;;;;;;;36.72;4.60;;;8.50;55.70;;;;;;5059454;28;20037;-77
2022/01/30 13:27:48;;;;;;;35.58;5.03;;;8.50;54.30;;;;;;5053962;28;20110;-77
2022/01/30 13:30:19;;;;;;;30.27;5.32;;;8.60;54.00;;;;;;5063813;28;20072;-80
2022/01/30 13:32:46;;;;;;;25.35;4.50;;;8.80;53.60;;;;;;5059873;28;20034;-76
2022/01/30 13:35:14;;;;;;;30.83;5.15;;;8.90;54.50;;;;;;5057931;28;20101;-80
2022/01/30 13:37:42;;;;;;;37.42;5.13;;;9.00;54.10;;;;;;5063606;28;20022;-76
2022/01/30 13:40:18;;;;;;;32.70;6.00;;;9.00;54.80;;;;;;5057963;28;20049;-77
2022/01/30 13:42:53;;;;;;;41.90;5.25;;;9.10;54.60;;;;;;5061357;28;20076;-77
2022/01/30 13:48:20;;;;;;;28.80;4.38;;;9.00;55.50;;;;;;5060322;28;20044;-77
2022/01/30 13:51:05;;;;;;;29.42;4.88;;;8.90;53.00;;;;;;5055785;28;20049;-77
2022/01/30 13:53:37;;;;;;;30.75;4.90;;;8.80;53.40;;;;;;5067490;28;20074;-79